Terminal Aerodrome Forecast
Issued by NWS

Home | Current Version | Previous Version | Text Only | Print | Product List | Glossary On
Versions: 1 2 3 4 5 6 7 8 9 10 11 12 13 14 15 16 17 18 19 20 21 22 23 24 25 26 27 28 29 30
000
FTUS42 KMFL 202332
TAFMIA
TAF
KMIA 202332Z 2100/2206 11014KT P6SM VCTS SCT015 BKN025CB OVC050
      TEMPO 2100/2101 VRB15G25KT 2SM RA SCT015 BKN025 OVC050
     FM210100 11008KT P6SM VCSH SCT020 BKN060 OVC120
     FM211500 13015KT P6SM VCSH SCT020 BKN060 OVC120=

USA.gov is the U.S. government's official web portal to all federal, state and local government web resources and services.